createdAt,value
2022-11-02T00:01:32.871Z,10.79
2022-11-02T00:03:59.305Z,10.80
2022-11-02T00:06:25.685Z,10.78
2022-11-02T00:08:52.019Z,10.81
2022-11-02T00:11:18.363Z,10.96
2022-11-02T00:13:44.818Z,10.83
2022-11-02T00:16:15.671Z,10.65
2022-11-02T00:18:44.775Z,10.80
2022-11-02T00:21:13.274Z,10.82
2022-11-02T00:23:41.463Z,10.85
2022-11-02T00:26:07.930Z,10.91
2022-11-02T00:28:34.519Z,10.85
2022-11-02T00:31:01.454Z,10.87
2022-11-02T00:33:27.887Z,10.93
2022-11-02T00:35:55.572Z,10.87
2022-11-02T00:38:21.927Z,10.75
2022-11-02T00:40:48.377Z,10.79
2022-11-02T00:43:15.559Z,10.77
2022-11-02T00:45:42.526Z,10.73
2022-11-02T00:48:09.407Z,10.86
2022-11-02T00:50:36.241Z,10.87
2022-11-02T00:53:03.263Z,10.77
2022-11-02T00:55:29.703Z,10.73
2022-11-02T00:58:02.909Z,10.74
2022-11-02T01:00:29.556Z,10.74
2022-11-02T01:03:00.526Z,10.67
2022-11-02T01:05:27.244Z,10.75
2022-11-02T01:07:53.602Z,10.64
2022-11-02T01:10:20.174Z,10.61
2022-11-02T01:12:46.724Z,10.63
2022-11-02T01:15:13.196Z,10.51
2022-11-02T01:17:40.155Z,10.53
2022-11-02T01:20:07.676Z,10.55
2022-11-02T01:22:34.132Z,10.39
2022-11-02T01:25:00.502Z,10.47
2022-11-02T01:27:26.935Z,10.47
2022-11-02T01:29:54.018Z,10.30
2022-11-02T01:32:20.439Z,10.30
2022-11-02T01:34:46.847Z,10.27
2022-11-02T01:37:15.129Z,10.42
2022-11-02T01:39:41.482Z,10.34
2022-11-02T01:42:22.722Z,10.33
2022-11-02T01:44:49.173Z,10.33
2022-11-02T01:47:35.550Z,10.31
2022-11-02T01:50:27.185Z,10.27
2022-11-02T01:52:54.183Z,10.19
2022-11-02T01:55:25.392Z,10.25
2022-11-02T01:57:57.122Z,10.24
2022-11-02T02:00:23.558Z,10.30
2022-11-02T02:03:07.633Z,10.16
2022-11-02T02:05:43.787Z,10.21
2022-11-02T02:08:14.452Z,10.18
2022-11-02T02:10:40.875Z,10.08
2022-11-02T02:13:07.698Z,9.92
2022-11-02T02:15:57.547Z,9.88
2022-11-02T02:18:40.990Z,9.95
2022-11-02T02:21:26.359Z,10.06
2022-11-02T02:24:17.454Z,9.84
2022-11-02T02:27:14.306Z,9.89
2022-11-02T02:29:59.494Z,9.93
2022-11-02T02:32:37.650Z,10.07
2022-11-02T02:35:11.348Z,9.92
2022-11-02T02:37:46.315Z,9.96
2022-11-02T02:40:23.078Z,9.81
2022-11-02T02:43:13.377Z,9.96
2022-11-02T02:45:44.650Z,9.97
2022-11-02T02:48:18.423Z,10.14
2022-11-02T02:50:53.352Z,10.09
2022-11-02T02:53:27.524Z,9.81
2022-11-02T02:55:54.947Z,9.92
2022-11-02T02:58:25.942Z,9.97
2022-11-02T03:00:52.994Z,9.81
2022-11-02T03:03:26.940Z,9.92
2022-11-02T03:06:19.470Z,10.16
2022-11-02T03:09:16.561Z,10.24
2022-11-02T03:11:55.330Z,10.25
2022-11-02T03:14:47.771Z,10.30
2022-11-02T03:17:24.166Z,10.28
2022-11-02T03:20:02.395Z,10.40
2022-11-02T03:22:51.872Z,10.57
2022-11-02T03:25:30.002Z,10.68
2022-11-02T03:28:07.852Z,10.77
2022-11-02T03:30:42.127Z,10.87
2022-11-02T03:33:14.671Z,10.94
2022-11-02T03:35:44.898Z,10.96
2022-11-02T03:38:36.115Z,11.09
2022-11-02T03:41:04.919Z,11.16
2022-11-02T03:43:36.405Z,11.19
2022-11-02T03:46:05.960Z,11.25
2022-11-02T03:48:38.106Z,11.28
2022-11-02T03:51:08.865Z,11.31
2022-11-02T03:53:50.699Z,11.31
2022-11-02T03:56:41.913Z,11.33
2022-11-02T03:59:08.851Z,11.30
2022-11-02T04:01:44.450Z,11.39
2022-11-02T04:04:11.410Z,11.44
2022-11-02T04:06:41.230Z,11.47
2022-11-02T04:09:08.910Z,11.49
2022-11-02T04:11:54.989Z,11.50
2022-11-02T04:14:54.345Z,11.48
2022-11-02T04:17:39.581Z,11.48
2022-11-02T04:20:11.323Z,11.44
2022-11-02T04:22:56.871Z,11.50
2022-11-02T04:25:23.637Z,11.46
2022-11-02T04:27:56.219Z,11.42
2022-11-02T04:30:27.704Z,11.45
2022-11-02T04:33:14.055Z,11.44
2022-11-02T04:35:48.022Z,11.40
2022-11-02T04:38:33.516Z,11.34
2022-11-02T04:41:18.983Z,11.38
2022-11-02T04:43:48.301Z,11.35
2022-11-02T04:46:16.321Z,11.37
2022-11-02T04:48:43.897Z,11.34
2022-11-02T04:51:10.834Z,11.37
2022-11-02T04:53:38.579Z,11.32
2022-11-02T04:56:06.173Z,11.28
2022-11-02T04:58:33.365Z,11.29
2022-11-02T05:01:08.416Z,11.33
2022-11-02T05:03:36.106Z,11.33
2022-11-02T05:06:03.589Z,11.39
2022-11-02T05:08:30.733Z,11.41
2022-11-02T05:10:58.678Z,11.41
2022-11-02T05:13:26.756Z,11.38
2022-11-02T05:15:56.391Z,11.28
2022-11-02T05:18:23.143Z,11.29
2022-11-02T05:20:55.274Z,11.20
2022-11-02T05:23:24.793Z,11.18
2022-11-02T05:25:58.060Z,11.08
2022-11-02T05:28:26.310Z,11.04
2022-11-02T05:30:53.759Z,11.17
2022-11-02T05:33:20.441Z,11.01
2022-11-02T05:35:47.525Z,11.07
2022-11-02T05:38:14.180Z,10.93
2022-11-02T05:40:40.835Z,10.93
2022-11-02T05:43:10.166Z,10.98
2022-11-02T05:45:37.751Z,10.88
2022-11-02T05:48:06.638Z,10.83
2022-11-02T05:50:33.489Z,10.84
2022-11-02T05:53:02.467Z,10.83
2022-11-02T05:55:29.077Z,10.83
2022-11-02T05:57:56.024Z,10.79
2022-11-02T06:00:24.335Z,10.72
2022-11-02T06:02:59.397Z,10.85
2022-11-02T06:05:26.471Z,10.85
2022-11-02T06:07:53.340Z,10.77
2022-11-02T06:10:19.705Z,10.84
2022-11-02T06:12:46.120Z,10.73
2022-11-02T06:15:12.478Z,10.65
2022-11-02T06:17:40.217Z,10.64
2022-11-02T06:20:08.226Z,10.63
2022-11-02T06:22:41.781Z,10.67
2022-11-02T06:25:09.107Z,10.71
2022-11-02T06:27:35.608Z,10.73
2022-11-02T06:30:04.736Z,10.76
2022-11-02T06:32:31.091Z,10.85
2022-11-02T06:34:57.470Z,10.78
2022-11-02T06:37:23.858Z,10.82
2022-11-02T06:39:50.280Z,10.81
2022-11-02T06:42:16.772Z,10.86
2022-11-02T06:44:43.162Z,10.89
2022-11-02T06:47:09.531Z,10.94
2022-11-02T06:49:35.878Z,10.95
2022-11-02T06:52:02.288Z,11.03
2022-11-02T06:54:28.653Z,11.07
2022-11-02T06:56:55.022Z,11.01
2022-11-02T06:59:21.451Z,11.08
2022-11-02T07:01:52.458Z,11.11
2022-11-02T07:04:18.955Z,11.12
2022-11-02T07:06:45.303Z,11.13
2022-11-02T07:09:11.662Z,11.13
2022-11-02T07:11:38.023Z,11.15
2022-11-02T07:14:04.395Z,11.14
2022-11-02T07:16:30.763Z,11.13
2022-11-02T07:18:57.662Z,11.21
2022-11-02T07:21:24.031Z,11.24
2022-11-02T07:23:50.571Z,11.21
2022-11-02T07:26:16.955Z,11.30
2022-11-02T07:28:45.697Z,11.32
2022-11-02T07:31:12.034Z,11.34
2022-11-02T07:33:38.407Z,11.46
2022-11-02T07:36:05.386Z,11.53
2022-11-02T07:38:31.823Z,11.57
2022-11-02T07:40:58.177Z,11.64
2022-11-02T07:43:24.542Z,11.67
2022-11-02T07:45:58.578Z,11.69
2022-11-02T07:48:25.038Z,11.73
2022-11-02T07:50:51.463Z,11.76
2022-11-02T07:53:17.872Z,11.77
2022-11-02T07:55:44.250Z,11.79
2022-11-02T07:58:13.689Z,11.78
2022-11-02T08:00:43.311Z,11.75
2022-11-02T08:03:11.663Z,11.73
2022-11-02T08:05:40.411Z,11.72
2022-11-02T08:08:13.054Z,11.75
2022-11-02T08:10:40.659Z,11.77
2022-11-02T08:13:08.649Z,11.77
2022-11-02T08:15:35.038Z,11.81
2022-11-02T08:18:03.361Z,11.79
2022-11-02T08:20:31.028Z,11.87
2022-11-02T08:22:58.075Z,11.83
2022-11-02T08:25:25.542Z,11.87
2022-11-02T08:27:52.030Z,11.86
2022-11-02T08:30:18.615Z,11.85
2022-11-02T08:32:44.955Z,11.87
2022-11-02T08:35:11.317Z,11.93
2022-11-02T08:37:37.709Z,11.99
2022-11-02T08:40:04.446Z,12.03
2022-11-02T08:42:30.795Z,12.08
2022-11-02T08:44:57.210Z,12.08
2022-11-02T08:47:24.299Z,12.08
2022-11-02T08:49:51.716Z,12.16
2022-11-02T08:52:18.441Z,12.21
2022-11-02T08:54:44.795Z,12.19
2022-11-02T08:57:11.153Z,12.15
2022-11-02T08:59:37.543Z,12.23
2022-11-02T09:02:04.009Z,12.22
2022-11-02T09:04:30.553Z,12.33
2022-11-02T09:06:56.886Z,12.35
2022-11-02T09:09:23.284Z,12.35
2022-11-02T09:11:50.808Z,12.39
2022-11-02T09:14:17.264Z,12.37
2022-11-02T09:16:43.728Z,12.44
2022-11-02T09:19:10.156Z,12.48
2022-11-02T09:21:37.402Z,12.53
2022-11-02T09:24:04.057Z,12.64
2022-11-02T09:26:30.389Z,12.71
2022-11-02T09:28:56.811Z,12.78
2022-11-02T09:31:23.208Z,12.80
2022-11-02T09:33:49.581Z,12.84
2022-11-02T09:36:15.992Z,12.86
2022-11-02T09:38:42.440Z,12.97
2022-11-02T09:41:17.627Z,13.05
2022-11-02T09:43:58.610Z,13.05
2022-11-02T09:46:26.838Z,13.09
2022-11-02T09:49:03.252Z,13.19
2022-11-02T09:51:36.094Z,13.28
2022-11-02T09:54:27.053Z,13.40
2022-11-02T09:56:57.671Z,13.49
2022-11-02T09:59:26.839Z,13.72
2022-11-02T10:02:12.609Z,13.86
2022-11-02T10:05:05.987Z,13.80
2022-11-02T10:07:41.382Z,13.62
2022-11-02T10:10:21.119Z,13.51
2022-11-02T10:12:55.202Z,13.31
2022-11-02T10:15:27.340Z,13.29
2022-11-02T10:17:57.665Z,13.24
2022-11-02T10:20:34.530Z,13.29
2022-11-02T10:23:07.256Z,13.24
2022-11-02T10:25:36.046Z,13.23
2022-11-02T10:28:14.652Z,13.48
2022-11-02T10:30:43.878Z,13.78
2022-11-02T10:33:20.553Z,14.12
2022-11-02T10:39:00.572Z,14.80
2022-11-02T10:41:30.035Z,15.08
2022-11-02T10:44:24.258Z,15.30
2022-11-02T10:46:53.724Z,15.37
2022-11-02T10:49:41.559Z,15.58
2022-11-02T10:52:14.166Z,15.78
2022-11-02T10:54:41.004Z,15.49
2022-11-02T10:57:17.593Z,15.49
2022-11-02T10:59:44.377Z,15.66
2022-11-02T11:02:15.312Z,15.70
2022-11-02T11:04:42.265Z,15.89
2022-11-02T11:07:24.558Z,15.98
2022-11-02T11:09:56.105Z,16.33
2022-11-02T11:12:31.751Z,16.28
2022-11-02T11:20:39.681Z,16.71
2022-11-02T11:23:15.451Z,16.82
2022-11-02T11:25:42.538Z,16.75
2022-11-02T11:28:42.294Z,16.78
2022-11-02T11:31:14.678Z,16.64
2022-11-02T11:33:44.986Z,16.71
2022-11-02T11:36:22.111Z,16.95
2022-11-02T11:38:50.281Z,16.94
2022-11-02T11:41:17.407Z,17.05
2022-11-02T11:43:46.897Z,17.15
2022-11-02T11:46:15.604Z,17.08
2022-11-02T11:48:46.353Z,16.77
2022-11-02T11:51:27.107Z,16.95
2022-11-02T11:54:23.995Z,17.08
2022-11-02T11:56:52.622Z,16.86
2022-11-02T11:59:25.102Z,16.99
2022-11-02T12:01:56.315Z,16.78
2022-11-02T12:04:37.387Z,16.91
2022-11-02T12:07:09.122Z,16.54
2022-11-02T12:10:00.899Z,16.48
2022-11-02T12:12:58.311Z,16.43
2022-11-02T12:15:40.214Z,16.00
2022-11-02T12:18:25.266Z,15.93
2022-11-02T12:21:03.737Z,15.77
2022-11-02T12:23:39.214Z,15.75
2022-11-02T12:26:23.261Z,15.50
2022-11-02T12:29:28.274Z,15.35
2022-11-02T12:32:01.034Z,15.21
2022-11-02T12:38:10.205Z,15.09
2022-11-02T12:40:54.824Z,15.00
2022-11-02T12:43:47.212Z,14.97
2022-11-02T12:46:26.158Z,14.83
2022-11-02T12:49:35.684Z,14.69
2022-11-02T12:52:21.274Z,14.66
2022-11-02T12:54:52.170Z,14.62
2022-11-02T12:57:23.615Z,14.54
2022-11-02T12:59:56.410Z,14.47
2022-11-02T13:02:27.161Z,14.48
2022-11-02T13:05:08.848Z,14.42
2022-11-02T13:07:44.122Z,14.35
2022-11-02T13:10:21.901Z,14.37
2022-11-02T13:12:54.789Z,14.34
2022-11-02T13:15:23.999Z,14.34
2022-11-02T13:17:55.699Z,14.27
2022-11-02T13:20:26.106Z,14.31
2022-11-02T13:22:57.935Z,14.29
2022-11-02T13:25:36.231Z,14.25
2022-11-02T13:28:11.517Z,14.18
2022-11-02T13:30:40.271Z,14.18
2022-11-02T13:33:30.813Z,14.18
2022-11-02T13:35:57.175Z,14.13
2022-11-02T13:38:32.615Z,14.13
2022-11-02T13:41:26.207Z,14.15
2022-11-02T13:44:03.863Z,14.15
2022-11-02T13:46:36.144Z,14.16
2022-11-02T13:49:14.552Z,14.05
2022-11-02T13:51:48.817Z,14.06
2022-11-02T13:54:26.746Z,14.03
2022-11-02T13:56:56.779Z,14.04
2022-11-02T13:59:30.650Z,14.01
2022-11-02T14:02:00.594Z,13.99
2022-11-02T14:04:30.646Z,14.01
2022-11-02T14:07:01.408Z,14.00
2022-11-02T14:09:38.696Z,14.03
2022-11-02T14:12:17.181Z,14.00
2022-11-02T14:14:44.979Z,13.98
2022-11-02T14:17:18.342Z,13.94
2022-11-02T14:19:47.544Z,13.94
2022-11-02T14:22:16.070Z,13.93
2022-11-02T14:24:42.567Z,13.92
2022-11-02T14:27:12.029Z,13.89
2022-11-02T14:29:47.683Z,13.98
2022-11-02T14:32:17.244Z,13.92
2022-11-02T14:34:54.139Z,13.88
2022-11-02T14:37:39.259Z,13.87
2022-11-02T14:40:46.358Z,13.87
2022-11-02T14:43:51.796Z,13.86
2022-11-02T14:46:39.457Z,13.81
2022-11-02T14:49:15.287Z,13.73
2022-11-02T14:51:42.655Z,13.79
2022-11-02T14:54:18.638Z,13.73
2022-11-02T14:57:03.018Z,13.82
2022-11-02T14:59:39.674Z,13.74
2022-11-02T15:02:12.538Z,13.73
2022-11-02T15:04:48.977Z,13.71
2022-11-02T15:07:22.466Z,13.71
2022-11-02T15:10:00.699Z,13.69
2022-11-02T15:12:41.334Z,13.69
2022-11-02T15:15:07.633Z,13.63
2022-11-02T15:17:36.895Z,13.56
2022-11-02T15:20:15.380Z,13.52
2022-11-02T15:22:47.503Z,13.48
2022-11-02T15:25:22.062Z,13.52
2022-11-02T15:27:51.355Z,13.47
2022-11-02T15:30:25.275Z,13.45
2022-11-02T15:33:02.113Z,13.36
2022-11-02T15:35:36.579Z,13.32
2022-11-02T15:38:25.784Z,13.23
2022-11-02T15:41:06.118Z,13.15
2022-11-02T15:43:56.239Z,13.18
2022-11-02T15:46:36.303Z,13.17
2022-11-02T15:49:17.959Z,13.18
2022-11-02T15:52:32.452Z,13.08
2022-11-02T15:55:25.419Z,12.90
2022-11-02T15:58:17.834Z,12.88
2022-11-02T16:01:03.980Z,12.79
2022-11-02T16:03:30.538Z,12.77
2022-11-02T16:06:03.238Z,12.67
2022-11-02T16:08:34.909Z,12.71
2022-11-02T16:11:19.817Z,12.56
2022-11-02T16:14:12.395Z,12.45
2022-11-02T16:16:46.472Z,12.44
2022-11-02T16:19:21.135Z,12.43
2022-11-02T16:21:49.586Z,12.32
2022-11-02T16:24:16.575Z,12.34
2022-11-02T16:26:44.775Z,12.23
2022-11-02T16:29:11.922Z,12.03
2022-11-02T16:31:40.761Z,12.05
2022-11-02T16:34:24.196Z,12.03
2022-11-02T16:36:51.018Z,12.07
2022-11-02T16:39:25.267Z,11.91
2022-11-02T16:41:55.704Z,11.56
2022-11-02T16:44:28.145Z,11.28
2022-11-02T16:47:06.841Z,11.38
2022-11-02T16:49:35.302Z,11.41
2022-11-02T16:52:21.175Z,11.67
2022-11-02T16:54:47.618Z,11.67
2022-11-02T16:57:42.463Z,11.68
2022-11-02T17:00:19.135Z,11.48
2022-11-02T17:02:46.247Z,11.49
2022-11-02T17:05:21.656Z,11.52
2022-11-02T17:07:58.584Z,11.53
2022-11-02T17:10:29.938Z,11.45
2022-11-02T17:12:57.447Z,11.32
2022-11-02T17:15:28.594Z,11.48
2022-11-02T17:18:07.424Z,11.39
2022-11-02T17:20:35.347Z,11.34
2022-11-02T17:23:04.585Z,11.24
2022-11-02T17:25:40.471Z,11.13
2022-11-02T17:28:35.009Z,11.19
2022-11-02T17:31:01.922Z,11.07
2022-11-02T17:33:30.589Z,11.10
2022-11-02T17:36:05.228Z,11.06
2022-11-02T17:38:31.794Z,11.02
2022-11-02T17:40:59.789Z,11.08
2022-11-02T17:43:26.919Z,11.00
2022-11-02T17:45:55.692Z,11.07
2022-11-02T17:48:22.436Z,11.04
2022-11-02T17:50:52.523Z,10.99
2022-11-02T17:53:19.051Z,10.98
2022-11-02T17:55:45.477Z,10.92
2022-11-02T17:58:13.681Z,10.98
2022-11-02T18:00:40.277Z,10.87
2022-11-02T18:03:17.205Z,10.60
2022-11-02T18:05:46.679Z,10.67
2022-11-02T18:08:16.721Z,10.81
2022-11-02T18:10:45.897Z,10.89
2022-11-02T18:13:18.858Z,10.92
2022-11-02T18:15:45.514Z,10.84
2022-11-02T18:18:12.199Z,10.56
2022-11-02T18:20:41.866Z,10.52
2022-11-02T18:23:14.853Z,10.76
2022-11-02T18:25:41.327Z,10.79
2022-11-02T18:28:08.027Z,10.74
2022-11-02T18:30:34.610Z,10.74
2022-11-02T18:33:02.616Z,10.40
2022-11-02T18:35:28.992Z,10.00
2022-11-02T18:37:55.390Z,10.27
2022-11-02T18:40:22.013Z,10.20
2022-11-02T18:42:48.433Z,10.32
2022-11-02T18:45:16.058Z,10.34
2022-11-02T18:47:42.777Z,10.27
2022-11-02T18:50:11.597Z,10.24
2022-11-02T18:52:38.526Z,10.16
2022-11-02T18:55:05.447Z,10.08
2022-11-02T18:57:32.676Z,10.20
2022-11-02T19:00:00.588Z,10.27
2022-11-02T19:02:27.051Z,10.23
2022-11-02T19:04:53.630Z,9.70
2022-11-02T19:07:38.503Z,10.00
2022-11-02T19:10:05.396Z,10.11
2022-11-02T19:12:32.102Z,10.13
2022-11-02T19:14:59.108Z,10.08
2022-11-02T19:17:26.565Z,10.07
2022-11-02T19:19:53.421Z,10.07
2022-11-02T19:22:22.604Z,10.06
2022-11-02T19:24:49.363Z,9.94
2022-11-02T19:27:18.657Z,9.92
2022-11-02T19:29:45.379Z,9.88
2022-11-02T19:32:12.195Z,9.96
2022-11-02T19:34:38.943Z,9.97
2022-11-02T19:37:06.659Z,9.73
2022-11-02T19:39:33.066Z,9.88
2022-11-02T19:41:59.510Z,9.84
2022-11-02T19:44:26.344Z,9.77
2022-11-02T19:46:52.737Z,9.77
2022-11-02T19:49:19.111Z,9.66
2022-11-02T19:51:45.697Z,9.75
2022-11-02T19:54:12.210Z,9.72
2022-11-02T19:56:38.685Z,9.66
2022-11-02T19:59:06.000Z,9.59
2022-11-02T20:01:57.300Z,9.56
2022-11-02T20:04:23.877Z,9.61
2022-11-02T20:06:50.402Z,9.50
2022-11-02T20:09:18.967Z,9.07
2022-11-02T20:11:46.916Z,9.28
2022-11-02T20:14:15.998Z,9.37
2022-11-02T20:16:42.663Z,9.34
2022-11-02T20:19:10.017Z,9.46
2022-11-02T20:21:41.522Z,9.50
2022-11-02T20:24:09.500Z,9.41
2022-11-02T20:26:38.069Z,9.45
2022-11-02T20:29:06.249Z,9.45
2022-11-02T20:31:35.782Z,9.41
2022-11-02T20:34:03.765Z,9.42
2022-11-02T20:36:30.201Z,9.45
2022-11-02T20:38:56.862Z,9.41
2022-11-02T20:41:24.266Z,9.43
2022-11-02T20:43:52.481Z,9.38
2022-11-02T20:46:50.050Z,9.35
2022-11-02T20:49:48.956Z,9.23
2022-11-02T20:52:03.022Z,9.21
2022-11-02T20:54:29.879Z,9.27
2022-11-02T20:56:56.866Z,9.12
2022-11-02T20:59:23.260Z,9.19
2022-11-02T21:01:49.807Z,9.25
2022-11-02T21:04:20.954Z,9.41
2022-11-02T21:06:51.142Z,9.41
2022-11-02T21:09:18.453Z,9.41
2022-11-02T21:12:03.508Z,9.55
2022-11-02T21:14:30.023Z,9.59
2022-11-02T21:16:56.403Z,9.68
2022-11-02T21:19:22.797Z,9.60
2022-11-02T21:21:49.168Z,9.62
2022-11-02T21:24:15.539Z,9.68
2022-11-02T21:26:43.150Z,9.69
2022-11-02T21:29:10.174Z,9.59
2022-11-02T21:31:37.287Z,9.59
2022-11-02T21:34:04.440Z,9.58
2022-11-02T21:36:31.547Z,9.50
2022-11-02T21:39:01.193Z,9.65
2022-11-02T21:41:29.596Z,9.66
2022-11-02T21:43:56.626Z,9.45
2022-11-02T21:46:25.712Z,9.45
2022-11-02T21:48:54.317Z,9.64
2022-11-02T21:51:22.363Z,9.45
2022-11-02T21:53:50.523Z,9.56
2022-11-02T21:56:23.397Z,9.67
2022-11-02T21:58:50.548Z,9.52
2022-11-02T22:01:41.565Z,9.53
2022-11-02T22:04:09.001Z,9.33
2022-11-02T22:06:37.693Z,8.94
2022-11-02T22:09:07.030Z,8.84
2022-11-02T22:11:34.405Z,8.98
2022-11-02T22:14:01.226Z,8.89
2022-11-02T22:16:31.759Z,9.01
2022-11-02T22:19:00.568Z,8.86
2022-11-02T22:21:29.599Z,8.86
2022-11-02T22:23:56.569Z,8.94
2022-11-02T22:26:25.511Z,8.98
2022-11-02T22:28:52.703Z,8.95
2022-11-02T22:31:25.031Z,9.07
2022-11-02T22:33:54.071Z,9.11
2022-11-02T22:36:23.237Z,8.96
2022-11-02T22:38:53.794Z,8.98
2022-11-02T22:41:26.097Z,9.04
2022-11-02T22:43:55.253Z,9.12
2022-11-02T22:46:22.525Z,9.12
2022-11-02T22:48:51.405Z,9.14
2022-11-02T22:51:19.072Z,9.15
2022-11-02T22:53:45.469Z,9.15
2022-11-02T22:56:13.461Z,9.06
2022-11-02T22:58:41.642Z,9.06
2022-11-02T23:01:10.562Z,9.12
2022-11-02T23:03:37.359Z,8.95
2022-11-02T23:06:06.469Z,8.98
2022-11-02T23:08:41.750Z,8.93
2022-11-02T23:11:21.619Z,8.79
2022-11-02T23:13:47.974Z,8.91
2022-11-02T23:16:21.987Z,8.83
2022-11-02T23:19:23.535Z,8.70
2022-11-02T23:22:28.946Z,8.81
2022-11-02T23:25:14.753Z,8.65
2022-11-02T23:28:00.755Z,8.63
2022-11-02T23:30:48.859Z,8.46
2022-11-02T23:33:15.910Z,8.42
2022-11-02T23:36:01.461Z,8.33
2022-11-02T23:38:48.387Z,8.07
2022-11-02T23:41:15.541Z,8.13
2022-11-02T23:43:41.940Z,8.32
2022-11-02T23:46:08.932Z,8.27
2022-11-02T23:48:35.442Z,8.31
2022-11-02T23:51:20.297Z,8.32
2022-11-02T23:54:05.241Z,8.32
2022-11-02T23:56:46.042Z,8.18
2022-11-02T23:59:14.213Z,8.04
